Time;durP1;ratioP1;P1;durP2;ratioP2;P2;SDS_P1;SDS_P2;PMS_P1;PMS_P2;Temp;Humidity;BMP_temperature;BMP_pressure;BME280_temperature;BME280_humidity;BME280_pressure;Samples;Min_cycle;Max_cycle;Signal;HPM_P1;HPM_P2
2023/07/01 00:03:20;;;;;;;11.07;7.30;;;;;;;-145.68;100.00;72828.25;10580138;28;20297;-74
2023/07/01 00:08:20;;;;;;;8.82;6.63;;;;;;;-145.68;100.00;72850.25;10580325;28;20189;-74
2023/07/01 00:13:21;;;;;;;12.30;7.65;;;;;;;-145.68;100.00;72840.25;10579578;28;20626;-74
2023/07/01 00:18:22;;;;;;;11.25;8.13;;;;;;;-145.68;100.00;72824.25;10580298;28;20783;-74
2023/07/01 00:23:22;;;;;;;10.25;7.90;;;;;;;-145.68;100.00;72808.28;10579260;28;20536;-74
2023/07/01 00:28:23;;;;;;;11.90;8.10;;;;;;;-145.68;100.00;72812.28;10579806;28;20281;-74
2023/07/01 00:33:24;;;;;;;8.65;7.40;;;;;;;-145.68;100.00;72828.25;10578927;28;20222;-74
2023/07/01 00:38:24;;;;;;;12.23;7.70;;;;;;;-145.68;100.00;72842.25;10579170;28;20237;-74
2023/07/01 00:43:25;;;;;;;9.30;7.85;;;;;;;-145.68;100.00;72854.25;10560363;28;20190;-74
2023/07/01 00:48:26;;;;;;;12.23;7.78;;;;;;;-145.68;100.00;72832.25;10578899;28;20191;-75
2023/07/01 00:53:26;;;;;;;11.25;8.25;;;;;;;-145.68;100.00;72826.25;10560253;28;20193;-74
2023/07/01 00:58:27;;;;;;;10.02;8.15;;;;;;;-145.68;100.00;72828.25;10543193;28;20270;-73
2023/07/01 01:03:33;;;;;;;12.63;6.80;;;;;;;-145.68;100.00;72834.25;10559183;28;20185;-75
2023/07/01 01:09:10;;;;;;;10.27;8.07;;;;;;;-145.68;100.00;72848.25;10559394;28;20198;-73
2023/07/01 01:14:11;;;;;;;11.90;8.02;;;;;;;-145.68;100.00;72858.22;10542809;28;20656;-74
2023/07/01 01:19:36;;;;;;;14.07;8.65;;;;;;;-145.68;100.00;72832.25;10577398;28;20319;-74
2023/07/01 01:24:38;;;;;;;14.02;9.50;;;;;;;-145.68;100.00;72846.25;10541292;28;20194;-74
2023/07/01 01:29:38;;;;;;;14.38;9.43;;;;;;;-145.68;100.00;72896.19;10577231;28;20243;-73
2023/07/01 01:34:39;;;;;;;13.07;8.93;;;;;;;-145.68;100.00;72890.22;10576988;28;20222;-73
2023/07/01 01:39:44;;;;;;;12.93;9.93;;;;;;;-145.68;100.00;72876.22;10576090;28;20221;-73
2023/07/01 01:44:51;;;;;;;15.60;10.02;;;;;;;-145.68;100.00;72842.25;10558631;28;20178;-73
2023/07/01 01:49:58;;;;;;;15.38;9.65;;;;;;;-145.68;100.00;72862.22;10558540;28;20182;-73
2023/07/01 01:54:58;;;;;;;17.10;11.07;;;;;;;-145.68;100.00;72840.25;10540899;28;20192;-74
2023/07/01 01:59:59;;;;;;;29.75;16.33;;;;;;;-145.68;100.00;72872.22;10575812;28;20221;-74
2023/07/01 02:04:59;;;;;;;29.08;15.70;;;;;;;-145.68;100.00;72864.22;10557255;28;20664;-73
2023/07/01 02:10:00;;;;;;;29.02;16.35;;;;;;;-145.68;100.00;72830.25;10557342;28;20199;-74
2023/07/01 02:15:00;;;;;;;24.20;14.68;;;;;;;-145.68;100.00;72828.25;10557398;28;20194;-74
2023/07/01 02:20:00;;;;;;;28.75;19.23;;;;;;;-145.68;100.00;72844.25;10575890;28;20224;-74
2023/07/01 02:25:01;;;;;;;29.45;19.50;;;;;;;-145.68;100.00;72866.22;10540459;28;20200;-75
2023/07/01 02:30:02;;;;;;;28.75;19.17;;;;;;;-145.68;100.00;72874.22;10557546;28;20319;-74
2023/07/01 02:35:03;;;;;;;28.70;20.25;;;;;;;-145.68;100.00;72890.22;10561325;28;20605;-74
2023/07/01 02:40:05;;;;;;;37.80;20.48;;;;;;;-145.68;100.00;72912.19;10583688;28;20225;-74
2023/07/01 02:45:06;;;;;;;29.35;19.33;;;;;;;-145.68;100.00;72872.22;10565450;28;20190;-74
2023/07/01 02:50:07;;;;;;;29.70;19.25;;;;;;;-145.68;100.00;72848.25;10583246;27;20189;-74
2023/07/01 02:55:08;;;;;;;26.80;19.25;;;;;;;-145.68;100.00;72858.22;10564875;28;20189;-74
2023/07/01 03:00:11;;;;;;;31.15;19.23;;;;;;;-145.68;100.00;72888.22;10564855;28;20213;-75
2023/07/01 03:05:12;;;;;;;33.20;20.20;;;;;;;-145.68;100.00;72884.22;10551839;28;20277;-73
2023/07/01 03:10:13;;;;;;;29.23;18.83;;;;;;;-145.68;100.00;72870.22;10536560;28;20209;-73
2023/07/01 03:15:14;;;;;;;33.35;20.23;;;;;;;-145.68;100.00;72850.25;10536493;28;20328;-73
2023/07/01 03:20:23;;;;;;;29.55;20.88;;;;;;;-145.68;100.00;72858.22;10535752;28;20222;-74
2023/07/01 03:25:26;;;;;;;31.33;21.08;;;;;;;-145.68;100.00;72876.22;10518425;28;20564;-73
2023/07/01 03:30:30;;;;;;;28.52;21.88;;;;;;;-145.68;100.00;72866.22;10535623;28;20224;-73
2023/07/01 03:35:31;;;;;;;29.92;23.27;;;;;;;-145.68;100.00;72878.22;10517277;28;20279;-73
2023/07/01 03:40:32;;;;;;;30.00;21.60;;;;;;;-145.68;100.00;72930.19;10517622;28;20222;-73
2023/07/01 03:45:32;;;;;;;22.83;18.48;;;;;;;-145.68;100.00;72900.19;10535246;28;20203;-74
2023/07/01 03:50:34;;;;;;;18.35;16.42;;;;;;;-145.68;100.00;72880.22;10517738;28;20214;-73
2023/07/01 03:55:34;;;;;;;17.42;13.63;;;;;;;-145.68;100.00;72858.22;10535049;28;20252;-73
2023/07/01 04:00:34;;;;;;;15.25;11.52;;;;;;;-145.68;100.00;72876.22;10516879;28;20229;-73
2023/07/01 04:05:35;;;;;;;11.93;9.77;;;;;;;-145.68;100.00;72866.22;10520151;28;20187;-73
2023/07/01 04:10:35;;;;;;;16.10;11.18;;;;;;;-145.68;100.00;72926.19;10537932;28;20183;-73
2023/07/01 04:15:36;;;;;;;12.63;10.40;;;;;;;-145.68;100.00;72904.19;10538196;28;20599;-73
2023/07/01 04:20:36;;;;;;;11.13;9.73;;;;;;;-145.68;100.00;72908.19;10536662;28;20358;-74
2023/07/01 04:25:36;;;;;;;12.80;10.43;;;;;;;-145.68;100.00;72932.19;10537825;28;20191;-73
2023/07/01 04:30:37;;;;;;;12.93;11.55;;;;;;;-145.68;100.00;72918.19;10537232;28;20278;-74
2023/07/01 04:35:37;;;;;;;11.55;9.98;;;;;;;-145.68;100.00;72884.22;10537312;28;20272;-74
2023/07/01 04:40:38;;;;;;;11.82;10.23;;;;;;;-145.68;100.00;72934.19;10518527;28;20222;-73
2023/07/01 04:45:41;;;;;;;12.60;10.50;;;;;;;-145.68;100.00;72932.19;10537131;28;20194;-73
2023/07/01 04:50:41;;;;;;;10.88;8.85;;;;;;;-145.68;100.00;72884.22;10536360;28;20221;-72
2023/07/01 04:55:42;;;;;;;9.20;7.85;;;;;;;-145.68;100.00;72842.25;10536481;28;20628;-72
2023/07/01 05:00:42;;;;;;;9.02;7.32;;;;;;;-145.68;100.00;72836.25;10516745;28;20297;-72
2023/07/01 05:05:42;;;;;;;9.40;7.18;;;;;;;-145.68;100.00;72834.25;10536082;28;20191;-72
2023/07/01 05:10:43;;;;;;;9.45;8.52;;;;;;;-145.68;100.00;72852.25;10524490;28;20194;-72
2023/07/01 05:15:43;;;;;;;14.70;9.25;;;;;;;-145.68;100.00;72844.25;10535402;28;20196;-73
2023/07/01 05:20:44;;;;;;;10.80;9.23;;;;;;;-145.68;100.00;72828.25;10562605;28;20218;-72
2023/07/01 05:25:44;;;;;;;9.65;8.52;;;;;;;-145.68;100.00;72844.25;10538703;28;20318;-72
2023/07/01 05:30:46;;;;;;;9.75;8.00;;;;;;;-145.68;96.53;72828.25;10515367;28;20182;-72
2023/07/01 05:35:46;;;;;;;13.07;8.02;;;;;;;-145.68;93.43;72770.31;10533886;28;20273;-72
2023/07/01 05:40:46;;;;;;;8.55;6.88;;;;;;;-145.68;90.45;72786.28;10532111;28;20313;-72
2023/07/01 05:45:47;;;;;;;9.82;6.72;;;;;;;-145.68;90.78;72842.25;10534367;28;20190;-72
2023/07/01 05:50:47;;;;;;;8.73;6.90;;;;;;;-145.68;92.35;72774.31;10534238;28;20202;-72
2023/07/01 05:55:48;;;;;;;10.48;6.88;;;;;;;-145.68;89.77;72828.25;10534271;28;20189;-72
2023/07/01 06:00:49;;;;;;;10.80;5.50;;;;;;;-145.68;87.24;72772.31;10564276;28;20223;-72
2023/07/01 06:05:49;;;;;;;11.13;5.88;;;;;;;-145.68;82.81;72776.28;10557771;28;20276;-72
2023/07/01 06:10:50;;;;;;;9.00;5.20;;;;;;;-145.68;82.06;72788.28;10563315;28;20189;-72
2023/07/01 06:15:50;;;;;;;9.40;5.75;;;;;;;-145.68;85.84;72780.28;10580595;27;20198;-72
2023/07/01 06:20:50;;;;;;;5.93;5.13;;;;;;;-145.68;81.24;72760.31;10575979;28;20267;-73
2023/07/01 06:25:51;;;;;;;7.45;4.78;;;;;;;-145.68;76.90;72636.41;10575999;28;20220;-72
2023/07/01 06:30:51;;;;;;;6.20;4.18;;;;;;;-145.68;75.25;72692.38;10571780;28;20553;-73
2023/07/01 06:35:51;;;;;;;7.65;3.90;;;;;;;-145.68;73.47;72732.34;10533513;28;20643;-73
2023/07/01 06:40:52;;;;;;;8.05;3.70;;;;;;;-145.68;69.41;72672.38;10532932;28;20564;-73
2023/07/01 06:45:52;;;;;;;9.93;4.70;;;;;;;-145.68;72.52;72688.38;10570083;28;20343;-73
2023/07/01 06:50:53;;;;;;;5.70;3.35;;;;;;;-145.68;65.53;72636.41;10575149;28;20186;-72
2023/07/01 06:55:53;;;;;;;5.45;2.72;;;;;;;-145.68;63.51;72574.47;10541613;28;20202;-72
2023/07/01 07:00:54;;;;;;;6.07;2.70;;;;;;;-145.68;61.12;72516.50;10553968;28;20344;-72
2023/07/01 07:05:55;;;;;;;6.78;2.55;;;;;;;-145.68;60.67;72560.47;10544081;28;20198;-72
2023/07/01 07:10:55;;;;;;;10.65;2.40;;;;;;;-145.68;59.44;72568.47;10531476;28;20588;-72
2023/07/01 07:15:55;;;;;;;5.13;2.33;;;;;;;-145.68;56.86;72622.41;10536493;28;20193;-72
2023/07/01 07:20:56;;;;;;;6.00;2.42;;;;;;;-145.68;56.04;72500.53;10574014;28;20210;-72
2023/07/01 07:25:56;;;;;;;3.17;2.25;;;;;;;-145.68;53.44;72346.66;10579639;27;20286;-72
2023/07/01 07:30:57;;;;;;;2.67;1.70;;;;;;;-145.68;51.87;72410.59;10578907;28;20182;-72
2023/07/01 07:35:58;;;;;;;3.08;2.10;;;;;;;-145.68;52.20;72396.63;10562719;28;20194;-72
2023/07/01 07:40:58;;;;;;;4.78;1.92;;;;;;;-145.68;49.35;72348.66;10537290;28;20305;-72
2023/07/01 07:45:58;;;;;;;2.88;1.80;;;;;;;-145.68;49.48;72412.59;10537124;28;20206;-72
2023/07/01 07:50:59;;;;;;;4.45;2.00;;;;;;;-145.68;48.47;72292.72;10535309;28;20198;-72
2023/07/01 07:55:59;;;;;;;7.35;1.70;;;;;;;-145.68;48.31;72218.78;10567983;27;20200;-71
2023/07/01 08:00:59;;;;;;;9.13;2.03;;;;;;;-145.68;46.11;72162.81;10572173;27;20308;-72
2023/07/01 08:06:00;;;;;;;4.25;1.98;;;;;;;-145.68;47.22;72288.72;10574172;28;20719;-72
2023/07/01 08:11:00;;;;;;;6.20;1.73;;;;;;;-145.68;47.66;72316.69;10559172;28;20197;-72
2023/07/01 08:16:00;;;;;;;6.20;2.17;;;;;;;-145.68;47.27;72302.69;10578382;28;20190;-72
2023/07/01 08:21:01;;;;;;;4.65;1.77;;;;;;;-145.68;47.48;72346.66;10554510;28;20693;-72
2023/07/01 08:26:01;;;;;;;5.72;1.98;;;;;;;-145.68;47.14;72340.66;10535711;28;20191;-72
2023/07/01 08:31:02;;;;;;;6.75;2.05;;;;;;;-145.68;45.58;72230.75;10535946;28;20313;-72
2023/07/01 08:36:02;;;;;;;7.25;2.50;;;;;;;-145.68;44.39;72174.81;10539460;28;20186;-72
2023/07/01 08:41:04;;;;;;;3.47;2.50;;;;;;;-145.68;44.83;72222.78;10572850;28;20262;-73
2023/07/01 08:46:05;;;;;;;4.13;2.10;;;;;;;-145.68;46.85;72262.72;10576509;28;20192;-72
2023/07/01 08:51:13;;;;;;;3.63;2.17;;;;;;;-145.68;46.22;72300.69;10540567;28;20430;-72
2023/07/01 08:56:13;;;;;;;4.88;2.38;;;;;;;-145.68;45.79;72330.66;10553399;28;20550;-72
2023/07/01 09:01:15;;;;;;;5.75;2.45;;;;;;;-145.68;45.33;72216.78;10556562;28;20226;-73
2023/07/01 09:06:15;;;;;;;5.60;2.45;;;;;;;-145.68;45.38;72234.75;10574628;28;20238;-73
2023/07/01 09:11:18;;;;;;;3.85;1.95;;;;;;;-145.68;43.31;72128.84;10562793;28;20603;-73
2023/07/01 09:16:35;;;;;;;5.47;1.73;;;;;;;-145.68;42.18;72068.91;10574796;28;20190;-73
2023/07/01 09:21:37;;;;;;;4.60;2.22;;;;;;;-145.68;42.04;72086.91;10571078;28;20217;-73
2023/07/01 09:26:38;;;;;;;3.25;1.88;;;;;;;-145.68;42.98;71967.00;10571799;27;20193;-73
2023/07/01 09:31:47;;;;;;;5.30;1.48;;;;;;;-145.68;40.93;71725.25;10555720;28;20237;-74
2023/07/01 09:36:47;;;;;;;3.28;2.20;;;;;;;-145.68;39.67;71633.34;10542993;28;20190;-73
2023/07/01 09:42:00;;;;;;;2.83;1.70;;;;;;;-145.68;39.40;71729.25;10573001;28;20594;-74
2023/07/01 09:47:01;;;;;;;3.00;1.83;;;;;;;-145.68;38.62;71657.34;10567058;28;20300;-74
2023/07/01 09:52:01;;;;;;;2.97;1.90;;;;;;;-145.68;38.09;71583.41;10539484;28;20188;-74
2023/07/01 09:57:02;;;;;;;4.82;2.10;;;;;;;-145.68;39.16;71651.34;10559362;28;20620;-73
2023/07/01 10:02:02;;;;;;;5.13;2.25;;;;;;;-145.68;38.63;71637.34;10561465;28;20305;-73
2023/07/01 10:07:03;;;;;;;3.60;2.25;;;;;;;-145.68;41.71;71923.06;10548402;28;20688;-77
2023/07/01 10:12:04;;;;;;;7.78;2.53;;;;;;;-145.68;42.67;71901.09;10532647;28;20274;-74
2023/07/01 10:17:05;;;;;;;6.10;2.67;;;;;;;-145.68;41.31;71825.16;10559726;28;20310;-74
2023/07/01 10:28:26;;;;;;;7.97;2.80;;;;;;;-145.68;39.93;71761.22;10478459;28;20205;-73
2023/07/01 10:33:36;;;;;;;3.47;2.58;;;;;;;-145.68;41.64;71941.03;10568658;28;20637;-73
2023/07/01 10:38:37;;;;;;;5.80;2.67;;;;;;;-145.68;40.67;71849.13;10566886;27;20359;-73
2023/07/01 10:43:38;;;;;;;7.45;3.40;;;;;;;-145.68;40.78;71809.16;10570222;28;20198;-73
2023/07/01 10:48:43;;;;;;;5.53;2.90;;;;;;;-145.68;42.07;72004.97;10550224;28;20190;-77
2023/07/01 10:53:59;;;;;;;4.25;2.67;;;;;;;-145.68;42.32;71885.09;10535614;28;20189;-74
2023/07/01 10:59:38;;;;;;;7.97;2.75;;;;;;;-145.68;42.62;72034.94;10573576;28;20272;-75
2023/07/01 11:04:51;;;;;;;4.75;2.97;;;;;;;-145.68;42.61;71971.00;10369564;28;20190;-75
2023/07/01 11:09:55;;;;;;;4.50;2.63;;;;;;;-145.68;39.91;71765.22;10505357;28;20678;-77
2023/07/01 11:14:55;;;;;;;6.25;3.38;;;;;;;-145.68;39.25;71857.13;10522323;28;20647;-76
2023/07/01 11:19:57;;;;;;;4.90;2.63;;;;;;;-145.68;40.03;71827.16;10545964;28;20221;-76
2023/07/01 11:25:06;;;;;;;4.32;2.78;;;;;;;-145.68;41.77;71947.03;10541637;28;20185;-76
2023/07/01 11:30:07;;;;;;;6.10;2.70;;;;;;;-145.68;40.71;71935.03;10582231;28;20572;-75
2023/07/01 11:35:08;;;;;;;6.05;2.70;;;;;;;-145.68;39.60;71777.22;10522998;28;20226;-76
2023/07/01 11:40:08;;;;;;;3.83;2.80;;;;;;;-145.68;38.72;71763.22;10538284;28;20218;-76
2023/07/01 11:45:09;;;;;;;4.30;3.08;;;;;;;-145.68;38.31;71661.31;10538519;28;20654;-75
2023/07/01 11:50:10;;;;;;;3.42;2.63;;;;;;;-145.68;38.52;71627.38;10537633;28;20183;-75
2023/07/01 11:55:10;;;;;;;8.32;3.25;;;;;;;-145.68;36.46;71637.34;10564854;28;20186;-74
2023/07/01 12:00:27;;;;;;;5.05;3.00;;;;;;;-145.68;39.01;71767.22;10578818;28;20309;-76
2023/07/01 12:05:27;;;;;;;3.72;2.90;;;;;;;-145.68;38.40;71637.34;10559415;28;20206;-76
2023/07/01 12:10:27;;;;;;;4.18;2.80;;;;;;;-145.68;39.93;71847.13;10578647;28;20263;-75
2023/07/01 12:15:28;;;;;;;5.15;3.13;;;;;;;-145.68;39.89;71795.19;10580175;28;20197;-76
2023/07/01 12:20:29;;;;;;;5.93;3.08;;;;;;;-145.68;39.21;71689.31;10579737;28;20596;-76
2023/07/01 12:25:29;;;;;;;4.57;2.80;;;;;;;-145.68;38.77;71565.44;10579971;28;20182;-75
2023/07/01 12:30:30;;;;;;;6.90;3.20;;;;;;;-145.68;39.62;71705.28;10579642;28;20190;-75
2023/07/01 12:35:31;;;;;;;5.53;3.25;;;;;;;-145.68;38.65;71601.41;10579302;28;20705;-76
2023/07/01 12:40:31;;;;;;;4.28;2.65;;;;;;;-145.68;37.56;71517.47;10579032;28;20225;-76
2023/07/01 12:45:33;;;;;;;4.47;2.63;;;;;;;-145.68;35.79;71365.66;10560834;28;20192;-76
2023/07/01 12:50:33;;;;;;;5.00;2.78;;;;;;;-145.68;35.92;71371.66;10579125;28;20193;-76
2023/07/01 12:55:34;;;;;;;3.35;2.90;;;;;;;-145.68;37.17;71575.41;10578961;28;20288;-75
2023/07/01 13:00:34;;;;;;;4.25;2.55;;;;;;;-145.68;40.04;71763.22;10578103;28;20225;-75
2023/07/01 13:05:34;;;;;;;4.68;3.10;;;;;;;-145.68;38.52;71647.34;10578044;28;20319;-75
2023/07/01 13:10:40;;;;;;;4.88;3.25;;;;;;;-145.68;38.34;71719.25;10578154;28;20184;-75
2023/07/01 13:15:48;;;;;;;5.15;3.50;;;;;;;-145.68;40.58;71757.22;10577852;28;20215;-75
2023/07/01 13:20:49;;;;;;;4.20;3.45;;;;;;;-145.68;38.86;71663.31;10576208;28;20674;-75
2023/07/01 13:25:52;;;;;;;4.85;3.85;;;;;;;-145.68;38.60;71583.41;10577925;28;20186;-75
2023/07/01 13:30:53;;;;;;;5.20;3.50;;;;;;;-145.68;38.70;71629.38;10572013;28;20193;-76
2023/07/01 13:35:53;;;;;;;4.40;3.40;;;;;;;-145.68;37.15;71559.44;10573393;28;20193;-75
2023/07/01 13:40:54;;;;;;;6.55;3.28;;;;;;;-145.68;37.50;71473.53;10573310;28;20226;-75
2023/07/01 13:45:54;;;;;;;7.05;3.65;;;;;;;-145.68;40.38;71679.31;10554650;28;20680;-75
2023/07/01 13:50:55;;;;;;;10.27;3.83;;;;;;;-145.68;39.37;71673.31;10572757;28;20636;-75
2023/07/01 13:55:56;;;;;;;5.18;3.95;;;;;;;-145.68;37.63;71617.38;10573138;28;20185;-76
2023/07/01 14:00:56;;;;;;;4.75;3.72;;;;;;;-145.68;40.15;71677.31;10572914;28;20276;-75
2023/07/01 14:05:57;;;;;;;5.25;3.88;;;;;;;-145.68;40.97;71761.22;10572421;28;20194;-76
2023/07/01 14:10:58;;;;;;;7.38;4.20;;;;;;;-145.68;39.61;71593.41;10572225;28;20212;-75
2023/07/01 14:15:58;;;;;;;5.40;3.70;;;;;;;-145.68;39.36;71505.50;10572392;28;20392;-76
2023/07/01 14:21:04;;;;;;;5.43;3.85;;;;;;;-145.68;38.71;71567.44;10571864;28;20225;-75
2023/07/01 14:26:14;;;;;;;6.50;4.28;;;;;;;-145.68;39.53;71547.44;10571856;28;20212;-75
2023/07/01 14:31:17;;;;;;;6.80;4.63;;;;;;;-145.68;38.30;71463.53;10576590;28;20218;-75
2023/07/01 14:36:24;;;;;;;8.05;5.15;;;;;;;-145.68;37.13;71217.81;10561791;28;20206;-76
2023/07/01 14:41:28;;;;;;;7.38;5.18;;;;;;;-145.68;37.80;71453.56;10562589;28;20218;-75
2023/07/01 14:46:30;;;;;;;5.85;5.10;;;;;;;-145.68;38.89;71581.41;10580410;28;20198;-76
2023/07/01 14:51:31;;;;;;;7.78;5.63;;;;;;;-145.68;40.31;71687.31;10579752;28;20277;-75
2023/07/01 14:56:31;;;;;;;7.07;5.28;;;;;;;-145.68;40.97;71727.25;10580212;28;20189;-75
2023/07/01 15:01:32;;;;;;;7.10;5.05;;;;;;;-145.68;40.33;71627.38;10579317;28;20863;-75
2023/07/01 15:06:32;;;;;;;9.07;5.90;;;;;;;-145.68;41.15;71643.34;10545377;28;20198;-75
2023/07/01 15:11:32;;;;;;;6.88;4.85;;;;;;;-145.68;41.46;71769.22;10518598;28;20315;-75
2023/07/01 15:16:33;;;;;;;6.45;4.78;;;;;;;-145.68;42.51;71759.22;10518829;28;20187;-75
2023/07/01 15:21:33;;;;;;;7.45;5.30;;;;;;;-145.68;42.02;71733.25;10518742;28;20765;-75
2023/07/01 15:26:33;;;;;;;6.93;4.78;;;;;;;-145.68;40.08;71557.44;10536527;28;20650;-75
2023/07/01 15:31:34;;;;;;;8.00;5.32;;;;;;;-145.68;40.97;71707.28;10536068;28;20766;-76
2023/07/01 15:36:35;;;;;;;6.95;4.90;;;;;;;-145.68;41.24;71729.25;10535777;28;20190;-75
2023/07/01 15:41:35;;;;;;;9.25;4.88;;;;;;;-145.68;41.08;71693.28;10534686;28;20227;-75
2023/07/01 15:46:35;;;;;;;6.95;4.28;;;;;;;-145.68;41.80;71693.28;10535733;28;20186;-75
2023/07/01 15:51:37;;;;;;;6.35;4.25;;;;;;;-145.68;41.64;71735.25;10517166;28;20190;-75
2023/07/01 15:56:38;;;;;;;9.23;4.80;;;;;;;-145.68;41.49;71687.31;10535373;28;20625;-75
2023/07/01 16:01:38;;;;;;;8.27;4.38;;;;;;;-145.68;41.18;71685.31;10534830;28;20305;-75
2023/07/01 16:06:38;;;;;;;5.60;3.80;;;;;;;-145.68;42.25;71769.22;10534569;28;20286;-75
2023/07/01 16:11:39;;;;;;;6.90;4.20;;;;;;;-145.68;42.45;71769.22;10534751;28;20190;-75
2023/07/01 16:16:39;;;;;;;7.78;3.60;;;;;;;-145.68;42.58;71737.25;10534934;28;20197;-75
2023/07/01 16:21:39;;;;;;;7.85;3.78;;;;;;;-145.68;42.65;71799.19;10536876;28;20301;-75
2023/07/01 16:26:41;;;;;;;6.40;4.05;;;;;;;-145.68;42.47;71791.19;10537881;28;20197;-75
2023/07/01 16:31:42;;;;;;;4.47;3.15;;;;;;;-145.68;42.73;71787.19;10519526;28;20231;-75
2023/07/01 16:36:42;;;;;;;9.15;3.28;;;;;;;-145.68;43.07;71803.19;10537085;28;20186;-75
2023/07/01 16:41:43;;;;;;;6.78;3.15;;;;;;;-145.68;42.75;71737.25;10537115;28;20224;-75
2023/07/01 16:46:44;;;;;;;4.60;3.17;;;;;;;-145.68;42.48;71731.25;10537050;28;20203;-75
2023/07/01 16:51:44;;;;;;;4.43;2.95;;;;;;;-145.68;42.89;71771.22;10535932;28;20186;-75
2023/07/01 16:56:51;;;;;;;4.93;3.05;;;;;;;-145.68;42.09;71797.19;10536953;28;20637;-76
2023/07/01 17:01:51;;;;;;;5.95;3.20;;;;;;;-145.68;43.22;71761.22;10517789;28;20617;-75
2023/07/01 17:06:52;;;;;;;6.65;3.17;;;;;;;-145.68;43.27;71727.25;10536238;28;20202;-75
2023/07/01 17:11:55;;;;;;;4.10;3.03;;;;;;;-145.68;42.05;71713.28;10535802;28;20650;-75
2023/07/01 17:16:56;;;;;;;4.78;3.08;;;;;;;-145.68;43.06;71779.19;10535879;28;20319;-75
2023/07/01 17:21:56;;;;;;;7.65;3.58;;;;;;;-145.68;42.75;71753.22;10535091;28;20229;-75
2023/07/01 17:26:56;;;;;;;7.68;3.13;;;;;;;-145.68;42.80;71757.22;10535392;28;20178;-75
2023/07/01 17:31:57;;;;;;;6.43;3.40;;;;;;;-145.68;41.36;71801.19;10535112;28;20332;-76
2023/07/01 17:36:57;;;;;;;4.63;3.35;;;;;;;-145.68;42.19;71861.13;10534744;28;20195;-75
2023/07/01 17:41:57;;;;;;;5.47;3.00;;;;;;;-145.68;42.68;71883.09;10534534;28;20690;-75
2023/07/01 17:46:58;;;;;;;5.70;3.72;;;;;;;-145.68;43.19;71861.13;10516751;28;20677;-75
2023/07/01 17:51:58;;;;;;;5.88;2.97;;;;;;;-145.68;42.96;71847.13;10534155;28;20541;-73
2023/07/01 17:56:59;;;;;;;4.18;3.08;;;;;;;-145.68;43.23;71887.09;10534700;28;20194;-73
2023/07/01 18:01:59;;;;;;;3.58;2.70;;;;;;;-145.68;43.61;71853.13;10534156;28;20754;-73
2023/07/01 18:07:00;;;;;;;8.80;3.13;;;;;;;-145.68;43.05;71855.13;10532915;28;20190;-73
2023/07/01 18:12:00;;;;;;;7.90;3.30;;;;;;;-145.68;43.66;71887.09;10533906;28;20187;-73
2023/07/01 18:17:01;;;;;;;8.95;3.63;;;;;;;-145.68;43.94;71941.03;10533639;28;20239;-73
2023/07/01 18:22:02;;;;;;;4.47;3.10;;;;;;;-145.68;44.22;71919.06;10515174;28;20228;-73
2023/07/01 18:27:03;;;;;;;7.82;3.10;;;;;;;-145.68;44.84;71969.00;10533580;28;20191;-74
2023/07/01 18:32:07;;;;;;;11.63;3.15;;;;;;;-145.68;45.15;71963.03;10521822;28;20229;-73
2023/07/01 18:37:08;;;;;;;5.43;3.15;;;;;;;-145.68;45.46;71985.00;10491519;28;20294;-73
2023/07/01 18:42:08;;;;;;;5.20;3.65;;;;;;;-145.68;45.63;71985.00;10491027;28;20241;-73
2023/07/01 18:47:09;;;;;;;8.63;3.00;;;;;;;-145.68;46.31;72004.97;10491451;28;20195;-73
2023/07/01 18:52:09;;;;;;;3.80;2.60;;;;;;;-145.68;46.65;72008.97;10491010;28;20191;-73
2023/07/01 18:57:09;;;;;;;4.10;2.85;;;;;;;-145.68;46.96;72010.97;10491307;28;20195;-73
2023/07/01 19:02:12;;;;;;;6.00;3.30;;;;;;;-145.68;47.62;72048.94;10490309;28;20285;-73
2023/07/01 19:07:12;;;;;;;5.78;2.90;;;;;;;-145.68;48.50;72064.91;10490726;28;20195;-73
2023/07/01 19:12:13;;;;;;;6.07;2.22;;;;;;;-145.68;48.96;72094.88;10490969;28;20202;-74
2023/07/01 19:17:13;;;;;;;5.10;2.25;;;;;;;-145.68;49.59;72078.91;10492852;28;20183;-74
2023/07/01 19:22:21;;;;;;;4.85;1.98;;;;;;;-145.68;50.68;72120.88;10498191;28;20229;-74
2023/07/01 19:27:21;;;;;;;5.50;2.08;;;;;;;-145.68;51.30;72132.84;10498124;28;20179;-75
2023/07/01 19:32:22;;;;;;;4.85;1.98;;;;;;;-145.68;51.87;72136.84;10511772;28;20233;-74
2023/07/01 19:37:22;;;;;;;4.13;1.65;;;;;;;-145.68;52.86;72178.81;10539734;28;20236;-75
2023/07/01 19:42:23;;;;;;;2.67;1.40;;;;;;;-145.68;55.95;72228.75;10573213;27;20206;-75
2023/07/01 19:47:23;;;;;;;5.80;1.30;;;;;;;-145.68;60.62;72264.72;10561240;28;20185;-74
2023/07/01 19:52:23;;;;;;;4.50;1.17;;;;;;;-145.68;65.18;72340.66;10578949;28;20668;-74
2023/07/01 19:57:24;;;;;;;1.90;1.08;;;;;;;-145.68;69.60;72368.63;10579319;28;20646;-75
2023/07/01 20:02:24;;;;;;;1.60;1.33;;;;;;;-145.68;71.77;72370.63;10579450;28;20828;-74
2023/07/01 20:07:24;;;;;;;2.85;1.60;;;;;;;-145.68;72.60;72370.63;10579457;28;20197;-74
2023/07/01 20:12:29;;;;;;;2.67;1.30;;;;;;;-145.68;72.23;72382.63;10579462;28;20223;-75
2023/07/01 20:17:29;;;;;;;5.25;1.38;;;;;;;-145.68;71.55;72372.63;10561195;28;20190;-75
2023/07/01 20:22:30;;;;;;;1.73;1.40;;;;;;;-145.68;70.10;72364.63;10578922;28;20224;-74
2023/07/01 20:27:30;;;;;;;1.88;1.30;;;;;;;-145.68;68.06;72342.66;10578557;28;20649;-74
2023/07/01 20:32:31;;;;;;;2.80;1.40;;;;;;;-145.68;67.65;72332.66;10578290;28;20228;-74
2023/07/01 20:37:32;;;;;;;4.00;1.60;;;;;;;-145.68;67.60;72328.69;10578371;28;20239;-74
2023/07/01 20:42:35;;;;;;;6.93;1.70;;;;;;;-145.68;68.00;72344.66;10577890;28;20217;-74
2023/07/01 20:47:35;;;;;;;3.50;2.20;;;;;;;-145.68;67.98;72348.66;10578353;28;20752;-74
2023/07/01 20:52:36;;;;;;;5.47;1.70;;;;;;;-145.68;67.28;72348.66;10578014;28;20197;-75
2023/07/01 20:57:36;;;;;;;1.65;1.55;;;;;;;-145.68;66.74;72340.66;10577610;28;20201;-74
2023/07/01 21:02:36;;;;;;;3.13;1.40;;;;;;;-145.68;66.49;72348.66;10577115;28;20255;-74
2023/07/01 21:07:37;;;;;;;3.45;1.92;;;;;;;-145.68;66.15;72314.69;10577016;28;20194;-74
2023/07/01 21:12:37;;;;;;;4.30;1.80;;;;;;;-145.68;65.97;72318.69;10576853;28;20525;-74
2023/07/01 21:17:37;;;;;;;7.78;1.90;;;;;;;-145.68;66.40;72336.66;10577307;28;20247;-74
2023/07/01 21:22:38;;;;;;;4.75;1.67;;;;;;;-145.68;66.13;72344.66;10576321;28;20308;-74
2023/07/01 21:27:38;;;;;;;5.13;2.05;;;;;;;-145.68;66.62;72344.66;10576439;28;20234;-74
2023/07/01 21:32:40;;;;;;;2.47;1.70;;;;;;;-145.68;66.86;72340.66;10576337;28;20237;-74
2023/07/01 21:37:41;;;;;;;3.80;2.00;;;;;;;-145.68;67.23;72350.66;10576199;28;20701;-74
2023/07/01 21:42:41;;;;;;;4.60;1.90;;;;;;;-145.68;68.94;72380.63;10575990;28;20220;-74
2023/07/01 21:47:41;;;;;;;2.55;2.13;;;;;;;-145.68;71.13;72394.63;10576752;28;20186;-75
2023/07/01 21:52:42;;;;;;;4.25;2.22;;;;;;;-145.68;75.34;72424.59;10576786;28;20192;-74
2023/07/01 21:57:43;;;;;;;4.85;2.50;;;;;;;-145.68;79.49;72444.56;10576472;28;20276;-74
2023/07/01 22:02:44;;;;;;;6.75;2.63;;;;;;;-145.68;88.54;72492.53;10557969;28;20796;-74
2023/07/01 22:07:44;;;;;;;6.10;2.47;;;;;;;-145.68;97.42;72536.50;10558089;28;20194;-74
2023/07/01 22:12:45;;;;;;;10.25;3.47;;;;;;;-145.68;100.00;72564.47;10575390;28;20713;-74
2023/07/01 22:17:45;;;;;;;4.15;3.05;;;;;;;-145.68;100.00;72600.44;10576349;28;20542;-74
2023/07/01 22:22:45;;;;;;;4.05;3.05;;;;;;;-145.68;100.00;72604.44;10574309;28;20294;-74
2023/07/01 22:27:46;;;;;;;6.22;3.38;;;;;;;-145.68;100.00;72616.44;10575228;28;20182;-74
2023/07/01 22:32:46;;;;;;;8.70;3.40;;;;;;;-145.68;100.00;72612.44;10575562;28;20286;-74
2023/07/01 22:37:47;;;;;;;7.43;3.13;;;;;;;-145.68;100.00;72618.44;10575440;28;20212;-74
2023/07/01 22:42:47;;;;;;;5.70;3.10;;;;;;;-145.68;100.00;72598.44;10575349;28;20222;-74
2023/07/01 22:47:47;;;;;;;6.35;3.10;;;;;;;-145.68;100.00;72612.44;10575177;28;20201;-74